createdAt,value
2023-02-22T00:01:35.657Z,69.60
2023-02-22T00:03:39.219Z,69.50
2023-02-22T00:05:47.236Z,69.50
2023-02-22T00:07:51.168Z,69.50
2023-02-22T00:09:54.492Z,70.30
2023-02-22T00:11:58.786Z,69.80
2023-02-22T00:14:02.613Z,70.00
2023-02-22T00:16:06.768Z,69.90
2023-02-22T00:18:12.298Z,70.40
2023-02-22T00:20:19.636Z,70.60
2023-02-22T00:22:24.856Z,70.30
2023-02-22T00:24:29.655Z,69.80
2023-02-22T00:26:35.138Z,70.20
2023-02-22T00:28:38.846Z,70.90
2023-02-22T00:30:43.882Z,71.00
2023-02-22T00:32:48.095Z,70.10
2023-02-22T00:34:53.908Z,70.80
2023-02-22T00:37:03.047Z,70.20
2023-02-22T00:39:09.519Z,71.00
2023-02-22T00:41:13.760Z,71.10
2023-02-22T00:43:17.356Z,71.10
2023-02-22T00:45:24.124Z,71.40
2023-02-22T00:47:27.670Z,71.20
2023-02-22T00:49:31.480Z,70.10
2023-02-22T00:51:35.281Z,69.80
2023-02-22T00:53:38.568Z,69.80
2023-02-22T00:55:43.419Z,70.20
2023-02-22T00:57:46.813Z,70.60
2023-02-22T00:59:50.320Z,70.50
2023-02-22T01:01:53.832Z,70.70
2023-02-22T01:03:57.294Z,71.00
2023-02-22T01:06:00.895Z,71.20
2023-02-22T01:08:06.653Z,71.90
2023-02-22T01:10:11.544Z,72.30
2023-02-22T01:12:16.264Z,71.20
2023-02-22T01:14:21.219Z,70.60
2023-02-22T01:16:24.843Z,71.20
2023-02-22T01:18:28.696Z,71.90
2023-02-22T01:20:32.335Z,71.90
2023-02-22T01:22:35.845Z,71.80
2023-02-22T01:24:39.248Z,72.20
2023-02-22T01:26:42.794Z,72.30
2023-02-22T01:28:47.575Z,71.80
2023-02-22T01:30:51.750Z,72.10
2023-02-22T01:32:55.429Z,72.90
2023-02-22T01:34:58.923Z,72.80
2023-02-22T01:37:02.785Z,72.50
2023-02-22T01:39:06.099Z,72.30
2023-02-22T01:41:10.000Z,72.80
2023-02-22T01:43:22.430Z,72.50
2023-02-22T01:46:00.124Z,73.00
2023-02-22T01:48:08.841Z,73.30
2023-02-22T01:50:12.337Z,73.00
2023-02-22T01:52:20.059Z,73.70
2023-02-22T01:54:27.091Z,73.30
2023-02-22T01:56:33.764Z,73.30
2023-02-22T01:58:39.973Z,73.60
2023-02-22T02:00:44.810Z,74.00
2023-02-22T02:02:54.388Z,74.00
2023-02-22T02:04:59.673Z,74.20
2023-02-22T02:07:07.226Z,74.50
2023-02-22T02:09:15.649Z,74.20
2023-02-22T02:11:22.497Z,73.40
2023-02-22T02:13:27.217Z,73.60
2023-02-22T02:15:33.209Z,72.90
2023-02-22T02:17:37.301Z,73.40
2023-02-22T02:19:49.626Z,73.80
2023-02-22T02:22:14.687Z,74.50
2023-02-22T02:24:51.378Z,75.00
2023-02-22T02:27:18.014Z,74.40
2023-02-22T02:29:57.632Z,74.90
2023-02-22T02:32:36.723Z,75.40
2023-02-22T02:34:47.964Z,75.00
2023-02-22T02:37:00.553Z,75.10
2023-02-22T02:39:14.825Z,75.80
2023-02-22T02:41:22.286Z,75.40
2023-02-22T02:43:32.845Z,75.50
2023-02-22T02:45:42.607Z,74.90
2023-02-22T02:47:53.560Z,74.70
2023-02-22T02:50:02.164Z,74.50
2023-02-22T02:52:07.193Z,75.30
2023-02-22T02:54:14.991Z,75.90
2023-02-22T02:56:18.306Z,76.40
2023-02-22T02:58:24.130Z,76.30
2023-02-22T03:00:39.309Z,77.10
2023-02-22T03:02:55.593Z,77.30
2023-02-22T03:05:19.621Z,76.20
2023-02-22T03:07:35.519Z,76.40
2023-02-22T03:09:53.180Z,75.50
2023-02-22T03:12:09.268Z,75.80
2023-02-22T03:14:18.201Z,76.10
2023-02-22T03:16:30.092Z,77.00
2023-02-22T03:18:43.012Z,76.70
2023-02-22T03:20:51.718Z,76.80
2023-02-22T03:23:00.354Z,76.50
2023-02-22T03:25:09.052Z,76.40
2023-02-22T03:27:17.458Z,76.60
2023-02-22T03:29:23.513Z,76.70
2023-02-22T03:31:32.274Z,78.20
2023-02-22T03:33:42.201Z,79.20
2023-02-22T03:35:51.024Z,78.60
2023-02-22T03:37:57.977Z,78.80
2023-02-22T03:40:07.311Z,79.20
2023-02-22T03:42:14.077Z,78.70
2023-02-22T03:44:21.567Z,78.60
2023-02-22T03:46:25.581Z,78.50
2023-02-22T03:48:40.977Z,77.70
2023-02-22T03:50:46.181Z,77.50
2023-02-22T03:52:49.921Z,78.40
2023-02-22T03:54:55.009Z,78.40
2023-02-22T03:57:00.764Z,77.80
2023-02-22T03:59:05.541Z,78.90
2023-02-22T04:01:09.190Z,78.40
2023-02-22T04:03:13.134Z,78.00
2023-02-22T04:05:17.312Z,78.70
2023-02-22T04:07:25.709Z,78.60
2023-02-22T04:09:29.049Z,78.20
2023-02-22T04:11:32.698Z,77.50
2023-02-22T04:13:36.319Z,77.70
2023-02-22T04:15:39.888Z,77.70
2023-02-22T04:17:43.700Z,77.60
2023-02-22T04:19:48.320Z,77.60
2023-02-22T04:21:52.022Z,77.60
2023-02-22T04:23:56.859Z,77.80
2023-02-22T04:26:00.268Z,77.40
2023-02-22T04:28:03.831Z,77.30
2023-02-22T04:30:07.736Z,78.00
2023-02-22T04:32:11.384Z,77.80
2023-02-22T04:34:15.046Z,77.70
2023-02-22T04:36:19.757Z,78.60
2023-02-22T04:38:23.353Z,78.90
2023-02-22T04:40:28.178Z,78.60
2023-02-22T04:42:31.588Z,78.50
2023-02-22T04:44:34.990Z,78.00
2023-02-22T04:46:38.485Z,78.10
2023-02-22T04:48:42.067Z,78.20
2023-02-22T04:50:45.451Z,79.00
2023-02-22T04:52:48.758Z,78.50
2023-02-22T04:54:52.538Z,78.20
2023-02-22T04:56:57.897Z,78.80
2023-02-22T04:59:01.372Z,79.90
2023-02-22T05:01:05.341Z,79.30
2023-02-22T05:03:09.017Z,79.50
2023-02-22T05:05:12.571Z,80.00
2023-02-22T05:07:16.195Z,80.00
2023-02-22T05:09:19.665Z,79.30
2023-02-22T05:11:23.366Z,78.90
2023-02-22T05:13:28.495Z,79.40
2023-02-22T05:15:31.913Z,79.50
2023-02-22T05:17:35.598Z,79.50
2023-02-22T05:19:38.915Z,79.90
2023-02-22T05:21:42.477Z,80.50
2023-02-22T05:23:45.965Z,79.80
2023-02-22T05:25:49.567Z,79.40
2023-02-22T05:27:54.123Z,79.30
2023-02-22T05:29:59.641Z,79.50
2023-02-22T05:32:04.407Z,79.60
2023-02-22T05:34:07.673Z,79.70
2023-02-22T05:36:11.572Z,79.80
2023-02-22T05:38:16.272Z,79.80
2023-02-22T05:40:21.282Z,79.50
2023-02-22T05:42:24.799Z,79.50
2023-02-22T05:44:28.332Z,79.50
2023-02-22T05:46:33.170Z,80.20
2023-02-22T05:48:36.988Z,79.70
2023-02-22T05:50:40.751Z,80.20
2023-02-22T05:52:44.191Z,79.60
2023-02-22T05:54:47.551Z,80.00
2023-02-22T05:56:50.897Z,79.70
2023-02-22T05:58:54.305Z,79.40
2023-02-22T06:00:58.090Z,79.20
2023-02-22T06:03:04.970Z,79.90
2023-02-22T06:05:09.629Z,79.70
2023-02-22T06:07:13.796Z,79.40
2023-02-22T06:09:17.085Z,79.60
2023-02-22T06:11:20.784Z,79.90
2023-02-22T06:13:24.189Z,78.90
2023-02-22T06:15:28.804Z,78.90
2023-02-22T06:17:32.262Z,78.50
2023-02-22T06:19:37.223Z,78.70
2023-02-22T06:21:42.077Z,78.60
2023-02-22T06:23:45.825Z,78.10
2023-02-22T06:25:49.446Z,77.40
2023-02-22T06:27:52.939Z,77.60
2023-02-22T06:29:56.357Z,78.20
2023-02-22T06:32:00.158Z,77.70
2023-02-22T06:34:03.835Z,77.20
2023-02-22T06:36:10.706Z,77.10
2023-02-22T06:38:21.676Z,77.40
2023-02-22T06:40:29.542Z,77.10
2023-02-22T06:42:33.271Z,76.40
2023-02-22T06:44:36.667Z,76.60
2023-02-22T06:46:40.170Z,75.60
2023-02-22T06:48:43.655Z,75.70
2023-02-22T06:50:47.084Z,74.90
2023-02-22T06:52:52.290Z,74.50
2023-02-22T06:54:55.678Z,74.20
2023-02-22T06:56:58.982Z,74.20
2023-02-22T06:59:03.490Z,74.00
2023-02-22T07:01:07.984Z,73.60
2023-02-22T07:03:14.334Z,73.50
2023-02-22T07:05:20.614Z,73.00
2023-02-22T07:07:25.312Z,72.60
2023-02-22T07:09:30.235Z,72.30
2023-02-22T07:11:34.085Z,72.00
2023-02-22T07:13:37.579Z,71.50
2023-02-22T07:15:40.771Z,71.60
2023-02-22T07:17:44.185Z,71.40
2023-02-22T07:19:47.591Z,71.30
2023-02-22T07:21:51.043Z,70.60
2023-02-22T07:23:55.161Z,69.80
2023-02-22T07:26:02.028Z,69.60
2023-02-22T07:28:05.630Z,69.20
2023-02-22T07:30:13.101Z,68.90
2023-02-22T07:32:16.591Z,69.70
2023-02-22T07:34:20.063Z,72.20
2023-02-22T07:36:23.649Z,71.30
2023-02-22T07:38:26.992Z,66.00
2023-02-22T07:40:30.900Z,59.60
2023-02-22T07:42:35.625Z,54.60
2023-02-22T07:44:39.040Z,52.30
2023-02-22T07:46:42.725Z,48.50
2023-02-22T07:48:46.031Z,44.40
2023-02-22T07:50:49.615Z,42.50
2023-02-22T07:52:55.040Z,41.50
2023-02-22T07:54:58.535Z,39.20
2023-02-22T07:57:03.505Z,38.00
2023-02-22T07:59:09.419Z,37.30
2023-02-22T08:01:13.015Z,38.20
2023-02-22T08:03:18.143Z,39.40
2023-02-22T08:05:23.279Z,39.60
2023-02-22T08:07:26.615Z,39.10
2023-02-22T08:09:30.007Z,37.60
2023-02-22T08:11:33.806Z,37.00
2023-02-22T08:13:38.421Z,35.40
2023-02-22T08:15:45.020Z,35.70
2023-02-22T08:17:48.900Z,34.40
2023-02-22T08:19:52.321Z,32.30
2023-02-22T08:21:55.646Z,34.10
2023-02-22T08:23:58.970Z,30.20
2023-02-22T08:26:08.541Z,30.90
2023-02-22T08:28:14.061Z,30.30
2023-02-22T08:30:19.417Z,30.00
2023-02-22T08:32:24.910Z,28.70
2023-02-22T08:34:28.582Z,28.90
2023-02-22T08:36:33.048Z,27.60
2023-02-22T08:38:36.397Z,26.20
2023-02-22T08:40:39.705Z,26.60
2023-02-22T08:42:43.180Z,26.70
2023-02-22T08:44:46.548Z,27.50
2023-02-22T08:46:49.820Z,27.00
2023-02-22T08:48:55.551Z,26.00
2023-02-22T08:50:58.935Z,28.00
2023-02-22T08:53:05.051Z,29.80
2023-02-22T08:55:09.799Z,28.90
2023-02-22T08:57:13.285Z,26.80
2023-02-22T08:59:17.180Z,26.30
2023-02-22T09:01:32.712Z,25.80
2023-02-22T09:03:36.689Z,26.40
2023-02-22T09:05:41.828Z,25.80
2023-02-22T09:07:46.106Z,26.00
2023-02-22T09:09:49.439Z,24.80
2023-02-22T09:11:53.292Z,24.50
2023-02-22T09:13:56.647Z,22.80
2023-02-22T09:15:59.974Z,24.00
2023-02-22T09:18:04.125Z,24.40
2023-02-22T09:20:09.322Z,23.80
2023-02-22T09:22:14.049Z,23.40
2023-02-22T09:24:17.759Z,23.60
2023-02-22T09:26:23.655Z,22.90
2023-02-22T09:28:29.134Z,24.00
2023-02-22T09:30:34.719Z,23.60
2023-02-22T09:32:38.592Z,22.50
2023-02-22T09:34:45.959Z,22.90
2023-02-22T09:36:50.094Z,24.80
2023-02-22T09:38:54.802Z,23.70
2023-02-22T09:41:12.341Z,25.50
2023-02-22T09:43:43.133Z,24.20
2023-02-22T09:46:04.078Z,25.40
2023-02-22T09:48:21.197Z,24.10
2023-02-22T09:50:29.441Z,25.40
2023-02-22T09:52:37.793Z,23.80
2023-02-22T09:54:45.446Z,24.50
2023-02-22T09:56:51.294Z,24.70
2023-02-22T09:58:58.422Z,24.50
2023-02-22T10:01:17.722Z,23.10
2023-02-22T10:03:26.051Z,23.20
2023-02-22T10:05:34.797Z,24.30
2023-02-22T10:07:44.921Z,23.60
2023-02-22T10:09:51.069Z,23.80
2023-02-22T10:12:02.422Z,23.00
2023-02-22T10:14:19.561Z,23.90
2023-02-22T10:16:29.389Z,25.00
2023-02-22T10:18:57.628Z,24.50
2023-02-22T10:21:10.415Z,23.90
2023-02-22T10:23:22.774Z,24.00
2023-02-22T10:25:29.920Z,24.90
2023-02-22T10:27:40.652Z,25.10
2023-02-22T10:29:47.569Z,23.80
2023-02-22T10:31:58.240Z,22.90
2023-02-22T10:34:04.305Z,23.80
2023-02-22T10:36:16.833Z,24.70
2023-02-22T10:38:23.688Z,25.30
2023-02-22T10:40:33.351Z,24.00
2023-02-22T10:42:36.905Z,24.10
2023-02-22T10:44:42.242Z,23.80
2023-02-22T10:46:47.213Z,24.30
2023-02-22T10:48:53.652Z,23.50
2023-02-22T10:51:02.232Z,23.30
2023-02-22T10:53:06.273Z,23.50
2023-02-22T10:55:16.173Z,24.40
2023-02-22T10:57:26.980Z,24.40
2023-02-22T10:59:34.260Z,24.70
2023-02-22T11:01:40.895Z,23.30
2023-02-22T11:03:45.683Z,24.60
2023-02-22T11:05:50.409Z,23.20
2023-02-22T11:07:54.598Z,23.00
2023-02-22T11:09:59.728Z,23.50
2023-02-22T11:12:12.047Z,25.40
2023-02-22T11:14:28.740Z,24.80
2023-02-22T11:16:36.326Z,24.60
2023-02-22T11:18:40.225Z,24.80
2023-02-22T11:20:43.738Z,24.10
2023-02-22T11:22:47.215Z,25.30
2023-02-22T11:24:58.313Z,24.70
2023-02-22T11:27:07.126Z,25.80
2023-02-22T11:31:46.882Z,27.40
2023-02-22T11:36:01.079Z,27.20
2023-02-22T11:38:16.329Z,28.70
2023-02-22T11:40:23.059Z,29.20
2023-02-22T11:42:29.519Z,29.40
2023-02-22T11:44:34.367Z,29.40
2023-02-22T11:46:38.997Z,29.50
2023-02-22T11:48:55.361Z,30.00
2023-02-22T11:51:16.523Z,30.00
2023-02-22T11:53:31.067Z,29.20
2023-02-22T11:55:43.042Z,29.40
2023-02-22T11:58:00.887Z,27.90
2023-02-22T12:00:16.595Z,29.60
2023-02-22T12:02:51.825Z,28.80
2023-02-22T12:05:18.697Z,27.80
2023-02-22T12:07:32.824Z,27.00
2023-02-22T12:09:41.622Z,26.30
2023-02-22T12:11:58.389Z,25.80
2023-02-22T12:14:12.739Z,27.40
2023-02-22T12:16:25.137Z,27.20
2023-02-22T12:18:37.226Z,26.60
2023-02-22T12:20:47.721Z,27.20
2023-02-22T12:23:02.284Z,27.80
2023-02-22T12:25:19.652Z,27.10
2023-02-22T12:27:28.456Z,26.70
2023-02-22T12:29:39.383Z,27.00
2023-02-22T12:31:47.063Z,27.30
2023-02-22T12:34:01.301Z,26.60
2023-02-22T12:36:06.832Z,27.10
2023-02-22T12:38:15.755Z,27.10
2023-02-22T12:40:28.268Z,27.10
2023-02-22T12:42:38.007Z,26.40
2023-02-22T12:44:45.291Z,28.40
2023-02-22T12:46:53.382Z,28.00
2023-02-22T12:49:04.512Z,28.60
2023-02-22T12:51:20.617Z,27.50
2023-02-22T12:53:29.784Z,26.50
2023-02-22T12:55:39.676Z,26.20
2023-02-22T12:57:49.394Z,25.70
2023-02-22T12:59:57.680Z,25.20
2023-02-22T13:02:13.048Z,25.70
2023-02-22T13:04:21.068Z,25.00
2023-02-22T13:06:40.658Z,25.30
2023-02-22T13:08:54.665Z,24.60
2023-02-22T13:11:11.469Z,24.20
2023-02-22T13:13:26.325Z,25.10
2023-02-22T13:15:33.513Z,25.40
2023-02-22T13:17:43.077Z,24.70
2023-02-22T13:19:53.222Z,24.80
2023-02-22T13:22:05.523Z,24.80
2023-02-22T13:24:19.715Z,24.70
2023-02-22T13:26:27.252Z,25.70
2023-02-22T13:28:37.171Z,25.70
2023-02-22T13:30:43.264Z,25.60
2023-02-22T13:33:14.780Z,26.20
2023-02-22T13:35:35.177Z,24.80
2023-02-22T13:38:14.929Z,24.30
2023-02-22T13:40:47.188Z,24.70
2023-02-22T13:43:14.134Z,25.50
2023-02-22T13:46:00.044Z,26.60
2023-02-22T13:48:36.098Z,23.60
2023-02-22T13:51:04.556Z,24.00
2023-02-22T13:53:14.399Z,24.70
2023-02-22T13:55:21.513Z,25.30
2023-02-22T13:57:28.459Z,26.10
2023-02-22T13:59:36.265Z,26.20
2023-02-22T14:01:47.113Z,28.20
2023-02-22T14:03:50.816Z,27.10
2023-02-22T14:05:57.701Z,27.00
2023-02-22T14:08:01.220Z,26.80
2023-02-22T14:10:08.682Z,26.30
2023-02-22T14:12:15.109Z,26.30
2023-02-22T14:14:19.268Z,26.50
2023-02-22T14:16:25.234Z,27.10
2023-02-22T14:18:30.336Z,28.30
2023-02-22T14:20:36.953Z,29.40
2023-02-22T14:22:40.450Z,28.40
2023-02-22T14:24:45.936Z,29.60
2023-02-22T14:27:06.542Z,29.30
2023-02-22T14:29:21.482Z,30.20
2023-02-22T14:31:36.029Z,32.00
2023-02-22T14:34:10.467Z,30.90
2023-02-22T14:36:14.771Z,30.70
2023-02-22T14:38:21.074Z,31.50
2023-02-22T14:40:28.022Z,33.10
2023-02-22T14:42:36.499Z,33.50
2023-02-22T14:44:44.743Z,33.20
2023-02-22T14:46:50.167Z,33.00
2023-02-22T14:49:00.970Z,34.40
2023-02-22T14:51:20.619Z,33.50
2023-02-22T14:53:31.056Z,34.50
2023-02-22T14:55:39.906Z,34.70
2023-02-22T14:58:01.444Z,34.30
2023-02-22T15:00:28.968Z,33.70
2023-02-22T15:02:41.625Z,35.10
2023-02-22T15:04:52.871Z,35.90
2023-02-22T15:06:58.164Z,37.00
2023-02-22T15:09:09.950Z,38.40
2023-02-22T15:11:22.695Z,39.10
2023-02-22T15:13:33.145Z,38.60
2023-02-22T15:15:38.496Z,39.10
2023-02-22T15:17:46.251Z,41.60
2023-02-22T15:19:50.322Z,41.30
2023-02-22T15:21:56.253Z,41.60
2023-02-22T15:24:02.007Z,42.30
2023-02-22T15:26:05.592Z,43.50
2023-02-22T15:28:09.697Z,44.50
2023-02-22T15:30:27.707Z,44.20
2023-02-22T15:32:34.694Z,44.50
2023-02-22T15:34:38.224Z,45.10
2023-02-22T15:36:42.524Z,45.60
2023-02-22T15:38:50.627Z,46.40
2023-02-22T15:41:05.632Z,47.50
2023-02-22T15:43:17.349Z,47.40
2023-02-22T15:45:25.271Z,47.70
2023-02-22T15:47:32.167Z,47.90
2023-02-22T15:49:38.013Z,48.30
2023-02-22T15:51:46.496Z,49.30
2023-02-22T15:53:52.572Z,48.50
2023-02-22T15:55:59.348Z,48.40
2023-02-22T15:58:11.408Z,48.50
2023-02-22T16:00:25.361Z,48.80
2023-02-22T16:02:37.080Z,49.20
2023-02-22T16:04:42.158Z,49.30
2023-02-22T16:06:48.644Z,49.50
2023-02-22T16:08:55.670Z,49.80
2023-02-22T16:11:04.146Z,50.20
2023-02-22T16:13:31.178Z,50.30
2023-02-22T16:15:37.249Z,50.70
2023-02-22T16:17:56.002Z,51.00
2023-02-22T16:20:24.960Z,51.70
2023-02-22T16:22:33.834Z,52.10
2023-02-22T16:24:37.821Z,52.40
2023-02-22T16:26:41.576Z,52.50
2023-02-22T16:28:52.303Z,53.30
2023-02-22T16:31:00.441Z,54.00
2023-02-22T16:33:06.717Z,54.00
2023-02-22T16:35:18.062Z,54.00
2023-02-22T16:37:23.770Z,55.10
2023-02-22T16:39:29.601Z,56.10
2023-02-22T16:41:33.015Z,56.00
2023-02-22T16:43:37.480Z,55.90
2023-02-22T16:45:42.673Z,55.90
2023-02-22T16:47:48.314Z,56.30
2023-02-22T16:49:53.610Z,56.50
2023-02-22T16:52:01.669Z,57.30
2023-02-22T16:54:05.257Z,57.40
2023-02-22T16:56:13.157Z,57.80
2023-02-22T16:58:19.108Z,57.90
2023-02-22T17:00:31.339Z,58.10
2023-02-22T17:02:35.445Z,58.20
2023-02-22T17:04:40.541Z,58.40
2023-02-22T17:06:44.369Z,58.70
2023-02-22T17:08:48.817Z,58.80
2023-02-22T17:10:56.790Z,59.30
2023-02-22T17:13:07.247Z,59.50
2023-02-22T17:15:23.198Z,59.80
2023-02-22T17:17:27.357Z,60.10
2023-02-22T17:19:30.969Z,60.30
2023-02-22T17:21:35.641Z,60.60
2023-02-22T17:23:39.038Z,60.60
2023-02-22T17:25:44.059Z,60.60
2023-02-22T17:27:47.581Z,60.90
2023-02-22T17:29:50.942Z,61.10
2023-02-22T17:31:55.301Z,62.10
2023-02-22T17:34:02.188Z,61.80
2023-02-22T17:36:07.169Z,62.30
2023-02-22T17:38:11.887Z,63.20
2023-02-22T17:40:15.834Z,63.00
2023-02-22T17:42:19.290Z,62.80
2023-02-22T17:44:22.832Z,62.70
2023-02-22T17:46:26.929Z,62.60
2023-02-22T17:48:30.229Z,63.40
2023-02-22T17:50:33.877Z,64.10
2023-02-22T17:52:37.279Z,63.50
2023-02-22T17:54:42.202Z,64.20
2023-02-22T17:56:45.499Z,64.10
2023-02-22T17:58:53.202Z,64.40
2023-02-22T18:00:59.357Z,64.10
2023-02-22T18:03:05.264Z,64.10
2023-02-22T18:05:10.087Z,64.30
2023-02-22T18:07:14.389Z,65.00
2023-02-22T18:09:20.474Z,65.50
2023-02-22T18:11:27.274Z,65.50
2023-02-22T18:13:31.773Z,65.30
2023-02-22T18:15:35.718Z,65.20
2023-02-22T18:17:40.035Z,65.60
2023-02-22T18:19:43.597Z,66.00
2023-02-22T18:21:47.613Z,66.10
2023-02-22T18:23:51.096Z,66.10
2023-02-22T18:26:09.688Z,66.70
2023-02-22T18:28:15.829Z,67.00
2023-02-22T18:30:19.750Z,67.50
2023-02-22T18:32:23.468Z,67.80
2023-02-22T18:34:28.225Z,67.70
2023-02-22T18:36:32.520Z,68.00
2023-02-22T18:38:36.116Z,67.80
2023-02-22T18:40:39.423Z,68.20
2023-02-22T18:42:42.924Z,67.80
2023-02-22T18:44:47.769Z,68.80
2023-02-22T18:46:51.337Z,70.10
2023-02-22T18:48:56.759Z,69.50
2023-02-22T18:51:01.840Z,69.40
2023-02-22T18:53:05.568Z,69.70
2023-02-22T18:55:09.116Z,69.20
2023-02-22T18:57:13.346Z,69.40
2023-02-22T18:59:16.613Z,69.40
2023-02-22T19:01:22.153Z,70.00
2023-02-22T19:03:26.700Z,70.40
2023-02-22T19:05:33.056Z,70.20
2023-02-22T19:07:36.947Z,70.50
2023-02-22T19:09:40.672Z,70.80
2023-02-22T19:11:46.626Z,71.10
2023-02-22T19:13:51.507Z,71.10
2023-02-22T19:15:55.160Z,71.50
2023-02-22T19:17:59.851Z,71.30
2023-02-22T19:20:06.155Z,72.40
2023-02-22T19:22:09.618Z,72.10
2023-02-22T19:24:13.322Z,72.00
2023-02-22T19:26:19.731Z,72.10
2023-02-22T19:28:28.089Z,73.00
2023-02-22T19:30:32.676Z,73.40
2023-02-22T19:32:36.539Z,73.50
2023-02-22T19:34:44.142Z,73.10
2023-02-22T19:36:48.038Z,73.50
2023-02-22T19:38:51.657Z,74.00
2023-02-22T19:40:56.243Z,74.10
2023-02-22T19:42:59.699Z,74.30
2023-02-22T19:45:03.250Z,74.40
2023-02-22T19:47:10.070Z,74.50
2023-02-22T19:49:13.475Z,74.20
2023-02-22T19:51:20.294Z,73.90
2023-02-22T19:53:24.030Z,74.30
2023-02-22T19:55:32.348Z,74.70
2023-02-22T19:57:36.018Z,74.80
2023-02-22T19:59:39.447Z,74.20
2023-02-22T20:01:45.193Z,73.10
2023-02-22T20:03:53.389Z,73.60
2023-02-22T20:05:59.402Z,73.50
2023-02-22T20:08:04.521Z,74.60
2023-02-22T20:10:08.629Z,74.70
2023-02-22T20:12:12.343Z,74.60
2023-02-22T20:14:18.960Z,74.30
2023-02-22T20:16:22.733Z,75.00
2023-02-22T20:18:26.001Z,75.20
2023-02-22T20:20:30.873Z,75.00
2023-02-22T20:22:34.270Z,74.50
2023-02-22T20:24:38.994Z,74.70
2023-02-22T20:26:44.335Z,75.30
2023-02-22T20:28:48.857Z,75.00
2023-02-22T20:30:52.859Z,75.20
2023-02-22T20:32:56.694Z,75.70
2023-02-22T20:35:00.111Z,75.90
2023-02-22T20:37:04.886Z,76.40
2023-02-22T20:39:13.368Z,76.10
2023-02-22T20:41:24.148Z,76.70
2023-02-22T20:43:27.346Z,76.50
2023-02-22T20:45:32.395Z,75.60
2023-02-22T20:47:36.267Z,77.00
2023-02-22T20:49:40.075Z,76.40
2023-02-22T20:51:43.854Z,75.80
2023-02-22T20:53:47.642Z,75.50
2023-02-22T20:55:51.479Z,76.60
2023-02-22T20:57:56.109Z,77.60
2023-02-22T21:00:00.589Z,77.40
2023-02-22T21:02:03.959Z,76.90
2023-02-22T21:04:10.079Z,76.30
2023-02-22T21:06:16.839Z,76.40
2023-02-22T21:08:20.353Z,76.60
2023-02-22T21:10:23.627Z,76.30
2023-02-22T21:12:27.322Z,76.10
2023-02-22T21:14:32.708Z,76.00
2023-02-22T21:16:38.323Z,76.50
2023-02-22T21:18:41.704Z,77.70
2023-02-22T21:20:48.377Z,78.00
2023-02-22T21:22:53.118Z,77.60
2023-02-22T21:24:56.796Z,77.60
2023-02-22T21:27:00.430Z,77.80
2023-02-22T21:29:05.999Z,77.30
2023-02-22T21:31:13.301Z,77.10
2023-02-22T21:33:17.351Z,77.80
2023-02-22T21:35:23.283Z,77.30
2023-02-22T21:37:26.796Z,77.50
2023-02-22T21:39:30.576Z,77.20
2023-02-22T21:41:34.081Z,76.90
2023-02-22T21:43:37.904Z,77.30
2023-02-22T21:45:41.834Z,77.70
2023-02-22T21:47:47.447Z,77.40
2023-02-22T21:49:50.818Z,77.10
2023-02-22T21:51:54.111Z,77.60
2023-02-22T21:53:57.700Z,77.70
2023-02-22T21:56:05.086Z,77.80
2023-02-22T21:58:09.569Z,77.60
2023-02-22T22:00:17.501Z,77.40
2023-02-22T22:02:22.195Z,77.90
2023-02-22T22:04:29.924Z,77.60
2023-02-22T22:06:35.978Z,77.80
2023-02-22T22:08:41.221Z,77.70
2023-02-22T22:10:44.906Z,77.60
2023-02-22T22:12:50.573Z,77.00
2023-02-22T22:14:54.529Z,77.20
2023-02-22T22:17:01.131Z,77.50
2023-02-22T22:19:04.610Z,78.40
2023-02-22T22:21:12.256Z,78.70
2023-02-22T22:23:16.008Z,78.80
2023-02-22T22:25:19.708Z,78.40
2023-02-22T22:27:23.430Z,78.30
2023-02-22T22:29:28.618Z,78.10
2023-02-22T22:31:33.030Z,77.80
2023-02-22T22:33:38.191Z,78.00
2023-02-22T22:35:41.950Z,79.70
2023-02-22T22:37:51.147Z,80.20
2023-02-22T22:39:54.613Z,79.60
2023-02-22T22:41:58.227Z,79.70
2023-02-22T22:44:01.913Z,79.30
2023-02-22T22:46:08.219Z,79.10
2023-02-22T22:48:14.982Z,79.60
2023-02-22T22:50:19.876Z,80.10
2023-02-22T22:52:24.394Z,80.10
2023-02-22T22:54:29.129Z,79.70
2023-02-22T22:56:35.365Z,80.20
2023-02-22T22:58:39.232Z,80.00
2023-02-22T23:00:42.589Z,80.30
2023-02-22T23:02:48.740Z,79.60
2023-02-22T23:04:52.959Z,80.10
2023-02-22T23:06:57.053Z,79.70
2023-02-22T23:09:02.117Z,79.60
2023-02-22T23:11:09.870Z,80.40
2023-02-22T23:13:15.757Z,80.40
2023-02-22T23:15:19.254Z,81.00
2023-02-22T23:17:31.522Z,80.90
2023-02-22T23:19:36.913Z,80.20
2023-02-22T23:21:43.326Z,79.90
2023-02-22T23:23:51.421Z,78.90
2023-02-22T23:26:03.424Z,79.40
2023-02-22T23:28:14.858Z,79.90
2023-02-22T23:30:19.261Z,79.50
2023-02-22T23:32:22.876Z,79.70
2023-02-22T23:34:27.294Z,79.70
2023-02-22T23:36:30.622Z,80.10
2023-02-22T23:38:34.953Z,80.90
2023-02-22T23:40:39.014Z,81.50
2023-02-22T23:42:42.558Z,81.40
2023-02-22T23:44:49.105Z,81.40
2023-02-22T23:46:55.748Z,81.80
2023-02-22T23:49:01.803Z,82.10
2023-02-22T23:51:09.957Z,82.00
2023-02-22T23:53:15.263Z,82.40
2023-02-22T23:55:20.814Z,82.80
2023-02-22T23:57:26.119Z,81.30
2023-02-22T23:59:30.726Z,80.10
